Tiempo atmosférico en la estación meteorológica de Huercal Overa, Almería (295 m.)



Fecha
DESCASC
Temp. máxima en grados centígrados (hora)
DESCASC
Temp. mínima en grados centígrados (hora)
DESCASC
Temp. media en grados centígrados
DESCASC
Racha de viento máxima en m/sg (hora)
DESCASC
Velocidad máxima media en intervalos de 10 minutos(hora)
DESCASC
Precipitaciones diarias en mm
DESCASC
Precipitaciones de 00:00 a 06:00 en mm
DESCASC
Precipitaciones de 06:00 a 12:00 en mm
DESCASC
Precipitaciones de 12:00 a 18:00 en mm
DESCASC
Precipitaciones de 18:00 a 24:00 en mm
DESCASC

Gráficas

Temp. máximas Temp. mínimas Temp. medias Precipitaciones Rachas de viento máximas Velocidades máximas media en intervalos de 10 minutos

Datos horarios

Fecha y hora oficial Temperatura (ºC) Velocidad del viento (km/h) Dirección del viento Racha (km/h) Dirección de racha Precipitación (mm) Presión (hPa) Tendencia (hPa) Humedad (%)
2019-08-17 23:00:00 25.5 4 Oeste 6 Sudoeste 0 979.1 1.4 53
2019-08-17 22:00:00 26.8 4 Sudoeste 12 Sudoeste 0 978.6 0.5 46
2019-08-17 21:00:00 27.7 6 Sur 17 Sudoeste 0 978 -0.6 42
2019-08-17 20:00:00 30 12 Sudoeste 19 Sudoeste 0 977.7 -1 27
2019-08-17 19:00:00 31.8 13 Sudoeste 22 Sudoeste 0 978.1 -1.3 24
2019-08-17 18:00:00 32.2 11 Sudoeste 23 Sudoeste 0 978.6 -1.6 30
2019-08-17 17:00:00 32.8 11 Sudoeste 25 Sudoeste 0 978.7 -1.7 30
2019-08-17 16:00:00 32.7 14 Sur 28 Sudoeste 0 979.4 -1.4 27
2019-08-17 15:00:00 31.7 15 Sur 25 Oeste 0 980.2 -1.1 30
2019-08-17 14:00:00 31.5 13 Sudoeste 26 Sudoeste 0 980.4 -1.3 31
2019-08-17 13:00:00 30.6 13 Sudoeste 22 Sur 0 980.8 -0.2 31
2019-08-17 12:00:00 31.5 9 Sur 23 Sudoeste 0 981.3 0.3 25
2019-08-17 11:00:00 31 2 Sur 7 Sudoeste 0 981.7 0.3 30
2019-08-17 10:00:00 29.3 0 Calma -- -- 0 981 -0.4 34
2019-08-17 09:00:00 23.9 0 Calma -- -- 0 981 -0.2 54
2019-08-17 08:00:00 20.7 0 Calma 3 Oeste 0 981.4 0.1 63
2019-08-17 07:00:00 20.8 0 Calma 4 Este 0 981.4 0.1 72
2019-08-17 06:00:00 21.3 0 Calma 5 Nordeste 0 981.2 -0.4 78
2019-08-17 05:00:00 21.4 0 Calma 6 Este 0 981.3 -0.7 78
2019-08-17 04:00:00 22.1 4 Este 9 Nordeste 0 981.3 -1.1 78
2019-08-17 03:00:00 22.9 0 Calma -- -- 0 981.6 -0.8 80
2019-08-17 02:00:00 22.9 0 Calma -- -- 0 982 -0.4 80
2019-08-17 01:00:00 23.3 0 Calma 6 Sur 0 982.4 0.6 81
2019-08-17 00:00:00 23.4 3 Sudoeste 8 Oeste 0 982.4 1.1 80
2019-08-16 23:00:00 23.8 4 Sudoeste 9 Sudoeste 0 982.4 1.4 80
2019-08-16 22:00:00 24.8 4 Sudoeste 8 Sudoeste 0 981.8 1.2 76
2019-08-16 21:00:00 25.1 6 Sudoeste 17 Sur 0 981.3 0.6 74
2019-08-16 20:00:00 26.4 10 Sudoeste 22 Sudoeste 0 981 0 69
2019-08-16 19:00:00 28.6 12 Sudoeste 21 Sur 0 980.6 -0.8 47
2019-08-16 18:00:00 29.9 12 Sudoeste 24 Sur 0 980.7 -0.9 43
2019-08-16 17:00:00 30.8 14 Sudoeste 25 Sudoeste 0 981 -1 40
2019-08-16 16:00:00 30.4 15 Sudoeste 27 Sudoeste 0 981.4 -1.7 34
2019-08-16 15:00:00 32 14 Sudoeste 30 Sudoeste 0 981.6 -2 25
2019-08-16 14:00:00 31.7 11 Sudoeste 21 Sudoeste 0 982 -1.7 24
2019-08-16 13:00:00 30.2 11 Sudoeste 19 Sudoeste 0 983.1 0 25
2019-08-16 12:00:00 32.2 0 Calma 12 Oeste 0 983.6 0.3 22
2019-08-16 11:00:00 28.5 0 Calma 12 Nordeste 0 983.7 0.2 24
2019-08-16 10:00:00 28.4 0 Calma 8 Nordeste 0 983.1 -0.1 38
2019-08-16 09:00:00 24.2 4 Nordeste 8 Nordeste 0 983.3 0.4 53
2019-08-16 08:00:00 20.5 0 Calma 10 Nordeste 0 983.5 0.7 52
2019-08-16 07:00:00 20.9 2 Este 8 Nordeste 0 983.2 0.3 54
2019-08-16 06:00:00 20.8 0 Calma 6 Norte 0 982.9 -0.1 53
2019-08-16 05:00:00 21.3 0 Calma 5 Noroeste 0 982.8 -0.3 55
2019-08-16 04:00:00 21 2 Oeste 9 Nordeste 0 982.9 -0.2 55
2019-08-16 03:00:00 22 4 Este 9 Sudeste 0 983 -0.2 60
2019-08-16 02:00:00 22.1 0 Calma 4 Noroeste 0 983.1 0 68
2019-08-16 01:00:00 23 0 Calma 4 Noroeste 0 983.1 0.4 65
2019-08-16 00:00:00 23.3 3 Sudoeste 5 Sudoeste 0 983.2 0.9 69
2019-08-15 23:00:00 24.4 3 Sudoeste 11 Sudoeste 0 983.1 1.3 55
2019-08-15 22:00:00 25.4 6 Sudoeste 13 Sudoeste 0 982.7 1 43
2019-08-15 21:00:00 26.6 8 Sudoeste 14 Sudoeste 0 982.3 0.8 37
2019-08-15 20:00:00 28.4 7 Sudoeste 19 Sur 0 981.8 0 29
2019-08-15 19:00:00 29.4 12 Sur 24 Sudoeste 0 981.7 -0.2 25
2019-08-15 18:00:00 30.2 12 Sudoeste 26 Sur 0 981.5 -0.4 25
2019-08-15 17:00:00 30.4 16 Sur 30 Sur 0 981.8 -0.7 27
2019-08-15 16:00:00 30.4 15 Sur 29 Sur 0 981.9 -1.4 27
2019-08-15 15:00:00 30.7 15 Sudoeste 28 Sudoeste 0 981.9 -1.8 27
2019-08-15 14:00:00 30.6 14 Sur 28 Sudoeste 0 982.5 -1.2 27
2019-08-15 13:00:00 30.3 12 Sur 21 Sur 0 983.3 0.1 27
2019-08-15 12:00:00 29.1 6 Sudoeste 15 Sudoeste 0 983.7 0.6 39
2019-08-15 11:00:00 28.8 4 Sudeste 10 Este 0 983.7 0.3 44
2019-08-15 10:00:00 26.7 2 Este 8 Este 0 983.2 -0.2 52
2019-08-15 09:00:00 24.2 0 Calma 5 Sudeste 0 983.1 0.1 62
2019-08-15 08:00:00 20.1 0 Calma 5 Noroeste 0 983.4 0.4 78
2019-08-15 07:00:00 20.1 0 Calma 5 Sudeste 0 983.4 0.3 77
2019-08-15 06:00:00 20.5 0 Calma 6 Noroeste 0 983 -0.1 81
2019-08-15 05:00:00 21.1 0 Calma 5 Este 0 983 -0.6 81
2019-08-15 04:00:00 21.2 0 Calma 7 Noroeste 0 983.1 -0.5 81
2019-08-15 03:00:00 21.9 0 Calma 7 Nordeste 0 983.1 -0.4 79
2019-08-15 02:00:00 22.5 0 Calma 4 Sudoeste 0 983.6 0.2 79
2019-08-15 01:00:00 22.8 2 Sudoeste 6 Sur 0 983.6 0.8 77
2019-08-15 00:00:00 23.4 2 Sur 6 Sudoeste 0 983.5 0.8 75
2019-08-14 23:00:00 23.5 4 Sudoeste 11 Sudoeste 0 983.4 1 74
2019-08-14 22:00:00 24 7 Sudoeste 12 Sudoeste 0 982.8 0.6 72
2019-08-14 21:00:00 25 6 Sudoeste 16 Sudoeste 0 982.7 0.7 64
2019-08-14 20:00:00 26 8 Sudoeste 23 Sudoeste 0 982.4 0.4 56
2019-08-14 19:00:00 27.1 14 Sudoeste 25 Sudoeste 0 982.2 0.2 53
2019-08-14 18:00:00 28.2 12 Sudoeste 26 Sudoeste 0 982 -0.8 46
2019-08-14 17:00:00 28.5 14 Sudoeste 31 Sudoeste 0 982 -1.4 44
2019-08-14 16:00:00 29.4 13 Sudoeste 27 Sudoeste 0 982 -2.4 42
2019-08-14 15:00:00 28.3 14 Sudoeste 30 Sudoeste 0 982.8 -2 43
2019-08-14 14:00:00 28.2 13 Sur 25 Sudoeste 0 983.4 -0.7 42
2019-08-14 13:00:00 28.1 9 Sur 19 Sudoeste 0 984.4 -0.9 43
2019-08-14 12:00:00 27.8 4 Sur 12 Este 0 984.8 -0.4 47
2019-08-14 11:00:00 27 2 Norte 10 Norte 0 984.1 -0.9 49
2019-08-14 10:00:00 23.6 3 Sudoeste 9 Sudoeste 0 985.3 0.8 68
2019-08-14 09:00:00 22.4 4 Este 9 Sudeste 0 985.2 1.1 72
2019-08-14 08:00:00 21.4 2 Este 8 Este 0 985 1.1 77
2019-08-14 07:00:00 20.9 0 Calma 5 Este 0 984.5 0.3 81
2019-08-14 06:00:00 21.2 0 Calma 4 Sudoeste 0 984.1 -0.3 81
2019-08-14 05:00:00 21.6 0 Calma 5 Noroeste 0 983.9 -0.6 80
2019-08-14 04:00:00 22 0 Calma 5 Sudoeste 0 984.2 -0.3 79
2019-08-14 03:00:00 22.3 0 Calma 5 Oeste 0 984.4 0.1 78
2019-08-14 02:00:00 22.7 3 Sudoeste 8 Sudeste 0 984.5 0.4 78
2019-08-14 01:00:00 23.2 3 Este 10 Este 0 984.5 1 75
2019-08-14 00:00:00 23.5 5 Este 12 Sudeste 0 984.3 1.5 73
2019-08-13 23:00:00 23.6 6 Este 11 Este 0 984.1 1.9 74
2019-08-13 22:00:00 23.5 6 Sur 14 Sur 0 983.5 1.6 75
2019-08-13 21:00:00 24.1 5 Sudoeste 14 Este 0 982.8 1.2 70
2019-08-13 20:00:00 25.1 6 Sudeste 21 Sudeste 0 982.2 0.6 62
2019-08-13 19:00:00 26 6 Sudeste 23 Sudeste 0 981.9 -0.1 56
2019-08-13 18:00:00 26.6 8 Sudeste 22 Sudeste 0 981.6 -0.4 54
2019-08-13 17:00:00 28.3 8 Sudeste 30 Este 0 981.6 -0.4 50
2019-08-13 16:00:00 26.9 12 Sudeste 37 Este 0 982 -0.2 52
2019-08-13 15:00:00 27.7 17 Este 36 Este 0 982 -0.4 53
2019-08-13 14:00:00 27.9 12 Sudeste 30 Sudeste 0 982 -0.1 49
2019-08-13 13:00:00 29 6 Sudeste 24 Este 0 982.2 0.3 43
2019-08-13 12:00:00 27.3 11 Este 30 Este 0 982.4 0.1 47
2019-08-13 11:00:00 26.2 12 Nordeste 29 Este 0 982.1 0 47
2019-08-13 10:00:00 25.7 13 Este 30 Este 0 981.9 0.1 47
2019-08-13 09:00:00 24 9 Este 24 Este 0 982.3 0.9 54
2019-08-13 08:00:00 23.3 6 Nordeste 23 Este 0 982.1 0.9 58
2019-08-13 07:00:00 22.9 5 Este 19 Este 0 981.8 0.3 65
2019-08-13 06:00:00 23.3 3 Este 18 Este 0 981.4 -0.7 71
2019-08-13 05:00:00 23.1 4 Este 17 Nordeste 0 981.2 -1.2 77
2019-08-13 04:00:00 23 5 Nordeste 20 Nordeste 0 981.5 -1 78
2019-08-13 03:00:00 23.5 3 Este 8 Nordeste 0.1 982.1 -0.3 80
2019-08-13 02:00:00 23.5 0 Calma 6 Oeste 0.1 982.4 0.5 80
2019-08-13 01:00:00 23.6 5 Oeste 9 Noroeste 0 982.5 1.5 81
2019-08-13 00:00:00 23.6 3 Noroeste 6 Noroeste 0 982.4 2.3 78
2019-08-12 23:00:00 24.2 3 Sur 8 Sudeste 0 981.9 2.9 76
2019-08-12 22:00:00 24.7 0 Calma 13 Sudoeste 0 981 2.6 72
2019-08-12 21:00:00 25.4 6 Sur 18 Sur 0 980.1 1.4 68
2019-08-12 20:00:00 26.3 12 Sur 23 Sudoeste 0 979 -0.1 61
2019-08-12 19:00:00 28 12 Sudoeste 24 Sudoeste 0 978.4 -0.6 54
2019-08-12 18:00:00 28 13 Sudoeste 23 Sudoeste 0 978.7 -0.5 56
2019-08-12 17:00:00 27 13 Sudoeste 25 Sudoeste 0 979.1 0.1 58
2019-08-12 16:00:00 28.3 11 Sudoeste 28 Sudoeste 0 979 -0.2 42
2019-08-12 15:00:00 29.7 12 Sur 29 Sudoeste 0 979.2 -0.6 24
2019-08-12 14:00:00 29.8 15 Sudoeste 29 Sudoeste 0 979 -0.3 26
2019-08-12 13:00:00 30.3 13 Sur 26 Sur 0 979.2 0.9 24
2019-08-12 12:00:00 32.7 3 Sur 12 Nordeste 0 979.8 1.9 14
2019-08-12 11:00:00 32.1 3 Este 9 Sudeste 0 979.3 1.1 15
2019-08-12 10:00:00 30.3 0 Calma 8 Este 0 978.3 0.7 18
2019-08-12 09:00:00 27.4 0 Calma 6 Sudoeste 0 977.9 0.5 24
2019-08-12 08:00:00 22.3 3 Sudoeste 13 Oeste 0 978.2 0.9 31
2019-08-12 07:00:00 23.7 5 Noroeste 18 Noroeste 0 977.6 -0.2 22
2019-08-12 06:00:00 24.4 6 Oeste 10 Oeste 0 977.4 -0.3 24
2019-08-12 05:00:00 24.8 4 Norte 9 Sudoeste 0 977.3 -1.2 28
2019-08-12 04:00:00 23.1 0 Calma 9 Oeste 0 977.8 -0.8 62
2019-08-12 03:00:00 23.6 0 Calma 8 Nordeste 0 977.7 -1.2 69
2019-08-12 02:00:00 24.2 0 Calma 5 Nordeste 0 978.5 -0.2 66
2019-08-12 01:00:00 24.7 0 Calma 11 Norte 0 978.6 0.7 68
2019-08-12 00:00:00 24.8 3 Sudoeste 12 Sur 0 978.9 1.7 62
2019-08-11 23:00:00 26.3 4 Sur 8 Sur 0 978.7 2.2 46
2019-08-11 22:00:00 27.2 3 Sudoeste 11 Sudoeste 0 977.9 1.9 43
2019-08-11 21:00:00 28.4 5 Sudoeste 22 Sudoeste 0 977.2 1.2 41
2019-08-11 20:00:00 29.8 12 Sudoeste 21 Sudoeste 0 976.5 -0.2 38
2019-08-11 19:00:00 31.3 12 Sudoeste 23 Sudoeste 0 976 -1.6 36
2019-08-11 18:00:00 32.4 9 Sudoeste 23 Oeste 0 976 -1.7 34
2019-08-11 17:00:00 32.1 12 Sudoeste 25 Sudoeste 0 976.7 -1.2 37
2019-08-11 16:00:00 30.5 15 Sur 35 Sudoeste 0 977.6 -1.8 53
2019-08-11 15:00:00 31 16 Sudoeste 28 Sudoeste 0 977.7 -1.7 49
2019-08-11 14:00:00 31.9 14 Sudoeste 28 Sudoeste 0 977.9 -1.6 42
2019-08-11 13:00:00 32.8 5 Sur 14 Este 0 979.4 0.6 29
2019-08-11 12:00:00 33 3 Sudeste 14 Este 0 979.4 0.8 31
2019-08-11 11:00:00 29.4 2 Este 12 Este 0 979.5 0.2 42
2019-08-11 10:00:00 28.1 3 Este 8 Sur 0 978.8 0.2 49
2019-08-11 09:00:00 25.7 3 Este 11 Nordeste 0 978.6 0.3 69
2019-08-11 08:00:00 24.1 4 Sudeste 10 Sudeste 0 979.3 1.2 58
2019-08-11 07:00:00 24.3 2 Nordeste 9 Este 0 978.6 -0.2 47
2019-08-11 06:00:00 23.9 2 Sudeste 8 Nordeste 0 978.3 -0.8 47
2019-08-11 05:00:00 24.2 0 Calma 10 Nordeste 0 978.1 -1.8 46
2019-08-11 04:00:00 24.4 4 Nordeste 7 Nordeste 0 978.8 -1.5 45
2019-08-11 03:00:00 24.6 2 Oeste 8 Norte 0 979.1 -1.3 44
2019-08-11 02:00:00 25.3 3 Nordeste 6 Nordeste 0 979.9 -0.7 44
2019-08-11 01:00:00 26.1 0 Calma 5 Noroeste 0 980.3 0.4 43
2019-08-11 00:00:00 27 0 Calma 8 Sudoeste 0 980.4 1.1 41
2019-08-10 23:00:00 27.2 4 Sudoeste 8 Sudoeste 0 980.6 1.7 40
2019-08-10 22:00:00 29.1 0 Calma 8 Sur 0 979.9 1.1 31
2019-08-10 21:00:00 30.1 4 Sudoeste 15 Sudoeste 0 979.3 0.1 29
2019-08-10 20:00:00 32.3 5 Sur 23 Este 0 978.9 -0.5 27
2019-08-10 19:00:00 33.7 9 Sudeste 19 Sur 0 978.8 -1 24
2019-08-10 18:00:00 35.2 8 Sur 24 Sur 0 979.2 -1 23
2019-08-10 17:00:00 34.4 13 Sudoeste 27 Sudoeste 0 979.4 -1.2 21
2019-08-10 16:00:00 36 14 Sur 28 Sur 0 979.8 -1.3 21
2019-08-10 15:00:00 34.5 13 Sur 28 Sudoeste 0 980.2 -1.4 21
2019-08-10 14:00:00 35.3 14 Sudoeste 24 Sudoeste 0 980.6 -0.8 20
2019-08-10 13:00:00 34.9 10 Sur 24 Sudoeste 0 981.1 0.1 20
2019-08-10 12:00:00 34.4 9 Sur 19 Sur 0 981.6 1.3 22
2019-08-10 11:00:00 34.6 4 Sudoeste 12 Sudoeste 0 981.4 0.9 24
2019-08-10 10:00:00 32.5 0 Calma 6 Sudeste 0 981 0.9 27
2019-08-10 09:00:00 28.2 0 Calma 4 Nordeste 0 980.3 0.7 30
2019-08-10 08:00:00 25.5 2 Noroeste 8 Noroeste 0 980.5 1.3 34
2019-08-10 07:00:00 26.4 0 Calma 5 Oeste 0 980.1 0.7 33
2019-08-10 06:00:00 25.5 0 Calma 5 Oeste 0 979.6 0.1 33
2019-08-10 05:00:00 25.5 0 Calma 6 Nordeste 0 979.2 -0.4 35
2019-08-10 04:00:00 26 0 Calma 3 Oeste 0 979.4 0.1 36
2019-08-10 03:00:00 26.8 0 Calma 5 Noroeste 0 979.5 0.6 38
2019-08-10 02:00:00 27.1 2 Este 10 Este 0 979.6 1.2 40
2019-08-10 01:00:00 28.5 3 Este 7 Sur 0 979.3 1.6 36
2019-08-10 00:00:00 29.6 5 Sur 10 Sur 0 978.9 2 33
2019-08-09 23:00:00 30.2 3 Sudoeste 5 Sur 0 978.4 2.2 29
2019-08-09 22:00:00 31.9 2 Este 9 Este 0 977.7 1.4 27
2019-08-09 21:00:00 33.7 3 Este 11 Nordeste 0 976.9 0.2 24
2019-08-09 20:00:00 36.4 5 Este 17 Sudoeste 0 976.2 -0.9 19
2019-08-09 19:00:00 37.1 12 Sudoeste 18 Sudoeste 0 976.3 -1.3 17
2019-08-09 18:00:00 38 12 Sudoeste 23 Sudoeste 0 976.7 -1.4 17
2019-08-09 17:00:00 37.3 10 Sudoeste 24 Sudoeste 0 977.1 -1.7 18
2019-08-09 16:00:00 36.4 15 Sudoeste 26 Sudoeste 0 977.6 -1.8 19
2019-08-09 15:00:00 35.5 15 Sur 27 Sur 0 978.1 -1.6 21
2019-08-09 14:00:00 35.8 15 Sur 24 Sur 0 978.8 -0.7 18
2019-08-09 13:00:00 35.2 10 Sur 17 Sur 0 979.4 0.6 19
2019-08-09 12:00:00 35.4 8 Sur 13 Sudeste 0 979.7 1.2 16
2019-08-09 11:00:00 35.9 0 Calma 6 Nordeste 0 979.5 0.4 18
2019-08-09 10:00:00 31.8 0 Calma 5 Este 0 978.8 -0.1 25
2019-08-09 09:00:00 26.7 0 Calma 6 Nordeste 0 978.5 -0.3 31
2019-08-09 08:00:00 22.3 2 Nordeste 9 Este 0 979.1 0.3 39
2019-08-09 07:00:00 21.5 0 Calma 6 Nordeste 0 978.9 0.2 40
2019-08-09 06:00:00 21.4 3 Este 5 Nordeste 0 978.8 -0.2 40
2019-08-09 05:00:00 22.4 3 Sudeste 5 Sudeste 0 978.8 -0.4 37
2019-08-09 04:00:00 22.9 3 Oeste 6 Oeste 0 978.7 -0.3 36
2019-08-09 03:00:00 23 0 Calma 6 Nordeste 0 979 -0.2 37
2019-08-09 02:00:00 24.4 2 Noroeste 5 Oeste 0 979.2 0.2 35
2019-08-09 01:00:00 25.1 0 Calma 2 Sudeste 0 979 0.8 34
2019-08-09 00:00:00 25.6 0 Calma 5 Sur 0 979.2 1.3 32
2019-08-08 23:00:00 26.8 3 Oeste 5 Noroeste 0 979 1.7 31
2019-08-08 22:00:00 28.1 4 Sudoeste 10 Sudoeste 0 978.2 0.8 28
2019-08-08 21:00:00 28.9 9 Sudoeste 18 Sudoeste 0 977.9 0.2 26
2019-08-08 20:00:00 30.8 11 Sudoeste 23 Sudoeste 0 977.3 -0.5 23
2019-08-08 19:00:00 31.9 13 Sur 27 Sur 0 977.4 -0.6 21
2019-08-08 18:00:00 32.5 12 Sur 27 Sur 0 977.7 -0.5 21
2019-08-08 17:00:00 32.7 13 Sur 30 Sudoeste 0 977.8 -0.7 21
2019-08-08 16:00:00 33.1 17 Sudoeste 31 Sudoeste 0 978 -0.9 20
2019-08-08 15:00:00 35.1 13 Sudoeste 28 Sudoeste 0 978.2 -1.6 19
2019-08-08 14:00:00 33.8 13 Sur 28 Sudoeste 0 978.5 -0.6 20
2019-08-08 13:00:00 33.8 12 Sur 23 Sur 0 978.9 0.3 18
2019-08-08 12:00:00 34.8 5 Sur 13 Sur 0 979.8 1.7 17
2019-08-08 11:00:00 35.6 0 Calma 5 Este 0 979.1 0.7 17
2019-08-08 10:00:00 29.6 0 Calma 5 Sudeste 0 978.6 0.5 24
2019-08-08 09:00:00 26.1 0 Calma 8 Nordeste 0 978.1 0.5 31
2019-08-08 08:00:00 22.8 0 Calma 7 Sudoeste 0 978.4 1.3 34
2019-08-08 07:00:00 23 0 Calma 8 Sudoeste 0 978.1 0.9 35
2019-08-08 06:00:00 23.5 0 Calma 7 Este 0 977.6 0.3 34
2019-08-08 05:00:00 24.9 2 Noroeste 7 Norte 0 977.1 -0.5 30
2019-08-08 04:00:00 25.7 2 Noroeste 5 Norte 0 977.2 -0.7 31
2019-08-08 03:00:00 25.8 0 Calma 9 Nordeste 0 977.3 -0.4 33
2019-08-08 02:00:00 26.9 6 Este 10 Nordeste 0 977.6 0.1 34
2019-08-08 01:00:00 27.2 0 Calma 4 Oeste 0 977.9 1.3 35
2019-08-08 00:00:00 27.4 4 Sudoeste 8 Sudoeste 0 977.7 2 43
2019-08-07 23:00:00 28.6 2 Oeste 6 Noroeste 0 977.5 2.4 36
2019-08-07 22:00:00 29.7 0 Calma 10 Sur 0 976.6 1.5 34
2019-08-07 21:00:00 31.2 5 Sur 8 Sur 0 975.7 0.6 26
2019-08-07 20:00:00 33.4 2 Este 12 Este 0 975.1 0.1 21
2019-08-07 19:00:00 33.7 5 Este 17 Este 0 975.1 -0.3 21
2019-08-07 18:00:00 33.8 9 Sudoeste 18 Sudoeste 0 975.1 -0.7 22
2019-08-07 17:00:00 34.2 9 Sudoeste 18 Sudoeste 0 975 -0.9 24
2019-08-07 16:00:00 34.1 10 Sudoeste 20 Sudoeste 0 975.4 -1.4 25
2019-08-07 15:00:00 34.9 12 Sudoeste 23 Oeste 0 975.8 -1 24
2019-08-07 14:00:00 33.5 14 Sudoeste 27 Sudoeste 0 975.9 -1 27
2019-08-07 13:00:00 36.8 8 Sur 19 Sudoeste 0 976.8 0.7 12
2019-08-07 12:00:00 37.9 2 Sur 8 Sudoeste 0 976.8 0.6 12
2019-08-07 11:00:00 33.8 3 Sudeste 7 Sur 0 976.9 0.7 17
2019-08-07 10:00:00 29.2 2 Sur 6 Sur 0 976.1 0.1 34
2019-08-07 09:00:00 24.3 0 Calma 5 Sudeste 0 976.2 0.5 50
2019-08-07 08:00:00 22.4 2 Este 5 Este 0 976.2 0.9 56
2019-08-07 07:00:00 22.2 0 Calma 5 Oeste 0 976 0.6 55
2019-08-07 06:00:00 22.3 2 Nordeste 6 Nordeste 0 975.7 0.2 62
2019-08-07 05:00:00 22.8 0 Calma 6 Norte 0 975.3 -0.5 59
2019-08-07 04:00:00 22.6 3 Noroeste 7 Nordeste 0 975.4 -0.9 61
2019-08-07 03:00:00 23.5 0 Calma 7 Este 0 975.5 -0.7 59
2019-08-07 02:00:00 24.5 0 Calma 8 Nordeste 0 975.8 -0.6 56
2019-08-07 01:00:00 24.9 3 Noroeste 9 Sudeste 0 976.3 0.4 56
2019-08-07 00:00:00 25.2 4 Nordeste 13 Nordeste 0 976.2 0.6 56
2019-08-06 23:00:00 25.6 3 Este 14 Sudeste 0 976.4 1.9 56
2019-08-06 22:00:00 26.4 4 Sudoeste 13 Sudoeste 0 975.9 1.4 47
2019-08-06 21:00:00 27.1 9 Sudoeste 22 Sudoeste 0 975.6 0.9 40
2019-08-06 20:00:00 30.5 7 Sudoeste 19 Sudoeste 0 974.5 -0.8 31
2019-08-06 19:00:00 31.6 10 Sur 22 Sur 0 974.5 -1.4 30
2019-08-06 18:00:00 32.1 12 Sur 23 Sur 0 974.7 -1.9 32
2019-08-06 17:00:00 32.9 12 Sudoeste 25 Sudoeste 0 975.3 -2 31
2019-08-06 16:00:00 33.2 14 Sudoeste 29 Sudoeste 0 975.9 -2.4 30
2019-08-06 15:00:00 32.9 13 Sur 26 Sudoeste 0 976.6 -2.2 29
2019-08-06 14:00:00 32.7 14 Sur 26 Sur 0 977.3 -1.6 27
2019-08-06 13:00:00 32.4 9 Sur 17 Sudoeste 0 978.3 -0.3 30
2019-08-06 12:00:00 31.7 5 Sur 15 Sudoeste 0 978.8 0 33
2019-08-06 11:00:00 31.4 0 Calma 10 Sudoeste 0 978.9 -0.1 33
2019-08-06 10:00:00 27.5 2 Noroeste 6 Noroeste 0 978.6 -0.2 49
2019-08-06 09:00:00 25 0 Calma 4 Sudoeste 0 978.8 0.5 65
2019-08-06 08:00:00 21.5 0 Calma 5 Nordeste 0 979 0.5 78
2019-08-06 07:00:00 21.5 0 Calma 8 Este 0 978.8 0 79
2019-08-06 06:00:00 21.7 0 Calma 4 Norte 0 978.3 -0.7 78
2019-08-06 05:00:00 22.2 0 Calma 7 Noroeste 0 978.5 -0.6 78
2019-08-06 04:00:00 22.3 0 Calma 6 Norte 0 978.8 -0.5 78
2019-08-06 03:00:00 23 0 Calma 6 Sur 0 979 -0.4 76
2019-08-06 02:00:00 23.6 0 Calma 6 Sur 0 979.1 -0.2 76
2019-08-06 01:00:00 23.7 3 Oeste 7 Noroeste 0 979.3 0.4 75
2019-08-06 00:00:00 23.9 4 Sudoeste 8 Sudoeste 0 979.4 1.3 74
2019-08-05 23:00:00 24.8 3 Oeste 9 Oeste 0 979.3 2.6 69
2019-08-05 22:00:00 24.5 6 Sudoeste 20 Sur 0 978.9 2.3 73
2019-08-05 21:00:00 24.9 14 Sur 26 Sudoeste 0 978.1 1.2 69
2019-08-05 20:00:00 28.3 10 Sur 21 Sudoeste 0 976.7 -0.8 50
2019-08-05 19:00:00 29.5 10 Sudoeste 24 Sudoeste 0 976.6 -1.2 42
2019-08-05 18:00:00 30.3 10 Sudoeste 22 Sudoeste 0 976.9 -1.3 37
2019-08-05 17:00:00 31.2 14 Sudoeste 28 Sudoeste 0 977.5 -1 35
2019-08-05 16:00:00 31 15 Sudoeste 27 Sudoeste 0 977.8 -1.6 37
2019-08-05 15:00:00 32.1 14 Sudoeste 27 Sudoeste 0 978.2 -2 35
2019-08-05 14:00:00 31.7 15 Sudoeste 27 Sur 0 978.5 -1.5 34
2019-08-05 13:00:00 30.8 9 Sudoeste 20 Sudoeste 0 979.4 -0.5 41
2019-08-05 12:00:00 29.1 7 Sudoeste 15 Sudoeste 0 980.2 0.3 50
2019-08-05 11:00:00 28.6 3 Sudeste 9 Sur 0 980 -0.1 49
2019-08-05 10:00:00 26.7 0 Calma 6 Norte 0 979.9 0 59
2019-08-05 09:00:00 24.3 0 Calma 6 Este 0 979.9 0.8 74
2019-08-05 08:00:00 22.7 2 Nordeste 11 Nordeste 0 980.1 1.1 77
2019-08-05 07:00:00 22.9 0 Calma 11 Este 0 979.9 0.7 73
2019-08-05 06:00:00 23.3 0 Calma 6 Noroeste 0 979.1 -0.8 70
2019-08-05 05:00:00 23.2 2 Oeste 8 Sudoeste 0 979 -1.1 70
2019-08-05 04:00:00 23.2 4 Norte 10 Nordeste 0 979.2 -1 70
2019-08-05 03:00:00 23.4 0 Calma 6 Oeste 0 979.9 -0.5 75
2019-08-05 02:00:00 23.8 3 Sudoeste 10 Este 0 980.1 0 69
2019-08-05 01:00:00 24.4 4 Nordeste 12 Nordeste 0 980.2 1.1 66
2019-08-05 00:00:00 25.2 4 Norte 8 Norte 0 980.4 2.4 62
2019-08-04 23:00:00 25.2 2 Sudoeste 13 Sur 0 980.1 2.5 63
2019-08-04 22:00:00 25.2 10 Sudoeste 17 Sudoeste 0 979.1 1.5 65
2019-08-04 21:00:00 27.1 6 Sudoeste 14 Sudoeste 0 978 0.2 54
2019-08-04 20:00:00 28.2 8 Sudoeste 19 Sudoeste 0 977.6 -0.6 50
2019-08-04 19:00:00 28.8 10 Sur 20 Sudoeste 0 977.6 -0.7 48
2019-08-04 18:00:00 29.6 11 Sur 22 Sudoeste 0 977.8 -0.6 45
2019-08-04 17:00:00 29.3 14 Sur 33 Sudoeste 0 978.2 -0.8 49
2019-08-04 16:00:00 28.3 18 Sur 34 Sudoeste 0 978.3 -1.6 50
2019-08-04 15:00:00 30.2 17 Sur 31 Sur 0 978.4 -1.8 47
2019-08-04 14:00:00 29.6 13 Sudoeste 25 Sudoeste 0 979 -1.3 48
2019-08-04 13:00:00 30.4 5 Sur 20 Sur 0 979.9 -0.1 43
2019-08-04 12:00:00 30.5 3 Este 11 Sudeste 0 980.2 0.6 43
2019-08-04 11:00:00 28.8 0 Calma 9 Oeste 0 980.3 0.9 52
2019-08-04 10:00:00 27.7 0 Calma 9 Noroeste 0 980 1.4 61
2019-08-04 09:00:00 24.6 3 Norte 10 Oeste 0 979.6 1.1 74
2019-08-04 08:00:00 23.1 4 Noroeste 12 Sur 0 979.4 0.6 78
2019-08-04 07:00:00 22.8 2 Sudeste 8 Sudoeste 0 978.6 -0.7 79
2019-08-04 06:00:00 23 0 Calma 7 Sur 0 978.5 -0.9 79
2019-08-04 05:00:00 23.1 3 Sur 11 Oeste 0 978.8 -1.4 79
2019-08-04 04:00:00 23 5 Sudoeste 8 Sudoeste 0 979.3 -1.2 80
2019-08-04 03:00:00 23.4 4 Noroeste 11 Oeste 0 979.4 -1.1 80
2019-08-04 02:00:00 23.5 5 Sudoeste 12 Sudoeste 0 980.2 0.3 80
2019-08-04 01:00:00 23.4 7 Sudoeste 14 Sur 0 980.5 1.6 80
2019-08-04 00:00:00 23 6 Sudoeste 14 Sur 0 980.5 2.7 79
2019-08-03 23:00:00 24.1 7 Sur 15 Sur 0 979.9 1.9 78
2019-08-03 22:00:00 24.8 6 Sudoeste 11 Sudoeste 0 978.9 0.7 75
2019-08-03 21:00:00 25.3 6 Sudoeste 14 Sur 0 977.8 -0.2 72
2019-08-03 20:00:00 26 10 Sur 22 Sudoeste 0 978 -0.5 68
2019-08-03 19:00:00 27.2 14 Sudoeste 24 Sudoeste 0 978.2 -0.6 63
2019-08-03 18:00:00 27.7 14 Sudoeste 30 Sudoeste 0 978 -1.3 61
2019-08-03 17:00:00 28 17 Sudoeste 31 Sur 0 978.5 -1.4 61
2019-08-03 16:00:00 29 17 Sudoeste 32 Sudoeste 0 978.8 -1.4 50
2019-08-03 15:00:00 30.9 14 Sur 32 Sudoeste 0 979.3 -1.6 46
2019-08-03 14:00:00 29.9 9 Sur 18 Sur 0 979.9 -0.3 40
2019-08-03 13:00:00 29.7 4 Sur 17 Sur 0 980.2 0 45
2019-08-03 12:00:00 29.2 4 Sudoeste 14 Nordeste 0 980.9 0 46
2019-08-03 11:00:00 27.7 4 Nordeste 13 Nordeste 0 980.2 -0.1 49
2019-08-03 10:00:00 26.8 2 Sudeste 11 Sudeste 0 980.2 0 51
2019-08-03 09:00:00 23.4 4 Sur 9 Sur 0 980.9 1.3 67
2019-08-03 08:00:00 22.4 3 Este 8 Este 0 980.3 0.9 77
2019-08-03 07:00:00 21.7 3 Este 14 Nordeste 0 980.2 0.5 75
2019-08-03 06:00:00 22.2 2 Este 10 Este 0 979.6 -0.3 73
2019-08-03 05:00:00 22.2 4 Nordeste 8 Nordeste 0 979.4 -0.6 74
2019-08-03 04:00:00 22.6 3 Este 8 Sudeste 0 979.7 -0.7 74
2019-08-03 03:00:00 22.8 0 Calma 5 Noroeste 0 979.9 -0.9 75
2019-08-03 02:00:00 22.9 3 Noroeste 7 Oeste 0 980 -0.9 73
2019-08-03 01:00:00 23.6 0 Calma 6 Noroeste 0 980.4 0.8 72
2019-08-03 00:00:00 23.5 3 Noroeste 10 Sur 0 980.8 2.2 72
2019-08-02 23:00:00 23.5 7 Sudoeste 21 Sur 0 980.9 3.2 72
2019-08-02 22:00:00 24.4 9 Sur 21 Sur 0 979.6 1.9 68
2019-08-02 21:00:00 25.5 12 Sur 23 Sur 0 978.6 0.8 61
2019-08-02 20:00:00 27.2 10 Sur 24 Sudoeste 0 977.7 -0.8 48
2019-08-02 19:00:00 29.2 14 Sudoeste 23 Sur 0 977.7 -1.7 38
2019-08-02 18:00:00 31 6 Sur 21 Sudoeste 0 977.8 -1.9 34
2019-08-02 17:00:00 31 4 Sudeste 24 Sudoeste 0 978.5 -1.7 38
2019-08-02 16:00:00 28.8 9 Sudoeste 27 Sur 0 979.4 -0.7 48
2019-08-02 15:00:00 28.7 15 Sudoeste 27 Sudoeste 0 979.7 -0.2 49
2019-08-02 14:00:00 26.9 13 Sur 22 Sur 0 980.2 0.7 53
2019-08-02 13:00:00 28.8 6 Sudeste 27 Sudoeste 0 980.1 1.3 52
2019-08-02 12:00:00 27.3 10 Sur 26 Sudoeste 0 979.9 1.3 54
2019-08-02 11:00:00 27.4 6 Sudoeste 13 Sudoeste 0 979.5 0.7 50
2019-08-02 10:00:00 26.8 2 Sur 8 Sur 0 978.8 -0.2 51
2019-08-02 09:00:00 24 2 Sur 9 Norte 0 978.6 0.7 69
2019-08-02 08:00:00 21.6 2 Norte 11 Nordeste 0 978.8 0.3 80
2019-08-02 07:00:00 21.1 3 Este 12 Sudeste 0 979 0.1 81
2019-08-02 06:00:00 21.2 0 Calma 6 Sudoeste 0 977.9 -1 81
2019-08-02 05:00:00 21.7 4 Norte 8 Norte 0 978.5 -0.5 81
2019-08-02 04:00:00 21.9 0 Calma 14 Sur 0 978.9 -0.3 81
2019-08-02 03:00:00 22.2 0 Calma 8 Noroeste 0 978.9 -0.5 80
2019-08-02 02:00:00 22.2 3 Noroeste 6 Noroeste 0 979 -0.5 80
2019-08-02 01:00:00 22.3 5 Noroeste 8 Noroeste 0 979.2 0.5 80
2019-08-02 00:00:00 22.4 4 Sudoeste 11 Sudoeste 0 979.4 1.8 80
2019-08-01 23:00:00 22.7 7 Sudoeste 17 Sur 0 979.5 2.6 80
2019-08-01 22:00:00 23.2 8 Sudoeste 16 Sudoeste 0 978.7 2.7 78
2019-08-01 21:00:00 23.9 10 Sudoeste 25 Sudoeste 0 977.6 1.5 74
2019-08-01 20:00:00 25.6 13 Sudoeste 22 Sudoeste 0 976.9 1.1 60
2019-08-01 19:00:00 26.9 13 Sudoeste 27 Sudoeste 0 976 -0.2 53
2019-08-01 18:00:00 28 16 Sudoeste 34 Sudoeste 0 976.1 -1.1 49
2019-08-01 17:00:00 29.2 14 Sur 26 Sudoeste 0 975.8 -2.3 37
2019-08-01 16:00:00 32.1 4 Sur 19 Sudoeste 0 976.2 -1.8 29
2019-08-01 15:00:00 29.5 11 Sur 24 Sur 0 977.2 -1.5 33
2019-08-01 14:00:00 29.8 9 Sudoeste 26 Sur 0 978.1 -0.1 31
2019-08-01 13:00:00 27.5 6 Sur 21 Sur 0 978 -0.9 37
2019-08-01 12:00:00 28.9 3 Sudoeste 16 Sudeste 0 978.7 0.4 33
2019-08-01 11:00:00 26.6 4 Sur 17 Sudoeste 0 978.2 -0.5 36
2019-08-01 10:00:00 23.8 6 Sudoeste 10 Sudoeste 0 978.9 -0.7 42
2019-08-01 09:00:00 21.7 4 Noroeste 8 Noroeste 0 978.3 -0.2 50
2019-08-01 08:00:00 20.5 3 Este 7 Este 0 978.7 -0.5 53
2019-08-01 07:00:00 20.3 2 Sur 8 Sudoeste 0 979.6 0.4 55
2019-08-01 06:00:00 20.8 2 Norte 9 Oeste 0 978.5 -0.8 50
2019-08-01 05:00:00 21.1 0 Calma 10 Oeste 0 979.2 -0.1 57
2019-08-01 04:00:00 20.8 3 Noroeste 9 Noroeste 0 979.2 0.4 57
2019-08-01 03:00:00 21.7 0 Calma 12 Este 0 979.3 -0.1 53
2019-08-01 02:00:00 23.1 2 Nordeste 19 Este 0 979.3 0.2 49
2019-08-01 01:00:00 23.5 8 Este 23 Este 0 978.8 -0.7 54
2019-08-01 00:00:00 23.6 7 Este 26 Nordeste 0 979.4 0.9 53
2019-07-31 23:00:00 24.5 8 Este 24 Nordeste 0 979.1 1.8 45
2019-07-31 22:00:00 25.2 6 Sudeste 21 Este 0 979.5 2.3 44
2019-07-31 21:00:00 27.2 8 Este 25 Este 0 978.5 1.3 31
2019-07-31 20:00:00 28.9 7 Este 30 Nordeste 0 977.3 0 31
2019-07-31 19:00:00 29.4 12 Este 30 Nordeste 0 977.2 -1.2 31
2019-07-31 18:00:00 29.3 11 Este 40 Nordeste 0 977.2 -2.3 35
2019-07-31 17:00:00 29.3 9 Este 33 Nordeste 0 977.3 -2.1 37
2019-07-31 16:00:00 29.7 10 Este 34 Nordeste 0 978.4 -1.7 37
2019-07-31 15:00:00 28 12 Este 35 Nordeste 0 979.5 -1.9 40
2019-07-31 14:00:00 28 11 Este 27 Este 0 979.4 -2.1 43
2019-07-31 13:00:00 28.2 10 Este 30 Este 0 980.1 -1.1 45
2019-07-31 12:00:00 25.8 8 Nordeste 28 Este 0 981.4 1.1 47
2019-07-31 11:00:00 24.7 8 Nordeste 30 Nordeste 0 981.5 1.2 48
2019-07-31 10:00:00 23.7 0 Calma 21 Sudeste 0 981.2 1.9 61
2019-07-31 09:00:00 23.7 9 Nordeste 31 Nordeste 0 980.3 1.6 61
2019-07-31 08:00:00 23.2 6 Este 22 Este 0 980.3 1.5 62
2019-07-31 07:00:00 23 11 Este 31 Este 0 979.3 -1.9 58
2019-07-31 06:00:00 22.8 13 Sudeste 39 Este 0 978.7 -1.7 64
2019-07-31 05:00:00 23.1 5 Nordeste 13 Norte 0 978.8 -2.4 60
2019-07-31 04:00:00 22.5 3 Sudoeste 9 Sudoeste 0 981.2 0.8 72
2019-07-31 03:00:00 22.3 3 Noroeste 9 Norte 0 980.4 0.4 79
2019-07-31 02:00:00 22.5 0 Calma 8 Oeste 0 981.2 1.9 78
2019-07-31 01:00:00 23.1 3 Nordeste 9 Nordeste 0 980.4 2.1 76
2019-07-31 00:00:00 23.3 5 Oeste 11 Sudoeste 0 980 2.2 71
2019-07-30 23:00:00 23.8 6 Sudoeste 13 Sudoeste 0 979.3 1.8 69
2019-07-30 22:00:00 25.7 4 Sudoeste 11 Este 0 978.3 0.7 50
2019-07-30 21:00:00 26.8 5 Sudeste 16 Este 0 977.8 0.3 45
2019-07-30 20:00:00 27.9 5 Este 21 Este 0 977.5 0.4 44
2019-07-30 19:00:00 28.2 8 Este 22 Sudeste 0 977.6 0.1 46
2019-07-30 18:00:00 29.8 11 Sur 23 Sur 0 977.5 0.1 40
2019-07-30 17:00:00 31.1 8 Sur 22 Sur 0 977.1 -0.3 34
2019-07-30 16:00:00 29.8 14 Sur 27 Sudoeste 0 977.5 -0.4 32
2019-07-30 15:00:00 30.1 18 Sur 28 Sur 0 977.4 -1 32
2019-07-30 14:00:00 31.8 16 Sudoeste 32 Sudoeste 0 977.4 -0.9 31
2019-07-30 13:00:00 31.3 13 Sur 24 Sur 0 977.9 -0.2 26
2019-07-30 12:00:00 34.3 4 Sudeste 13 Sudeste 0 978.4 0.7 19
2019-07-30 11:00:00 31.6 3 Sur 8 Sur 0 978.3 0.4 24
2019-07-30 10:00:00 30.2 0 Calma 4 Sudeste 0 978.1 0 31
2019-07-30 09:00:00 26.2 0 Calma 4 Sur 0 977.7 -0.1 46
2019-07-30 08:00:00 21.8 0 Calma 7 Oeste 0 977.9 0.1 58
2019-07-30 07:00:00 20.4 0 Calma 6 Nordeste 0 978.1 0.7 70
2019-07-30 06:00:00 20.5 0 Calma 4 Nordeste 0 977.8 0.9 64
2019-07-30 05:00:00 20.9 0 Calma 8 Norte 0 977.8 0.7 71
2019-07-30 04:00:00 21.6 6 Sudoeste 12 Sudoeste 0 977.4 0.3 68
2019-07-30 03:00:00 22.9 0 Calma 6 Nordeste 0 976.9 -0.2 51
2019-07-30 02:00:00 23.3 0 Calma 8 Nordeste 0 977.1 0.1 49
2019-07-30 01:00:00 23.8 0 Calma 6 Sudeste 0 977.1 1 51
2019-07-30 00:00:00 24.1 0 Calma 5 Sur 0 977.1 1.6 50
2019-07-29 23:00:00 24.8 2 Oeste 8 Sur 0 977 2 43
2019-07-29 22:00:00 26 0 Calma 12 Sudoeste 0 976.1 1.3 39
2019-07-29 21:00:00 27.5 6 Sudoeste 14 Sur 0 975.5 0.6 35
2019-07-29 20:00:00 28.9 10 Sudoeste 20 Sudoeste 0 975 -0.3 34
2019-07-29 19:00:00 29.1 12 Sudoeste 23 Sudoeste 0 974.8 -0.8 34
2019-07-29 18:00:00 29.5 13 Sudoeste 29 Sudoeste 0 974.9 -0.8 35
2019-07-29 17:00:00 29.5 12 Sur 27 Sudoeste 0 975.3 -0.8 34
2019-07-29 16:00:00 29.6 13 Sudoeste 26 Sudoeste 0 975.6 -0.8 35
2019-07-29 15:00:00 28.8 14 Sudoeste 29 Sudoeste 0 975.7 -1.2 37
2019-07-29 14:00:00 28 15 Sudoeste 26 Sudoeste 0 976.1 -0.4 38
2019-07-29 13:00:00 27.6 14 Sudoeste 22 Sur 0 976.4 -0.1 44
2019-07-29 12:00:00 27.9 9 Sur 17 Sudoeste 0 976.9 0.4 37
2019-07-29 11:00:00 27.3 6 Sudoeste 14 Sudoeste 0 976.5 -0.1 35
2019-07-29 10:00:00 26.5 2 Este 7 Este 0 976.5 -0.4 36
2019-07-29 09:00:00 24.5 0 Calma 5 Sudoeste 0 976.5 -0.1 38
2019-07-29 08:00:00 20.4 0 Calma 7 Oeste 0 976.6 0.2 50
2019-07-29 07:00:00 19.3 0 Calma 4 Nordeste 0 976.9 0.5 65
2019-07-29 06:00:00 19.4 0 Calma 3 Sudoeste 0 976.6 0.3 65
2019-07-29 05:00:00 20.2 0 Calma 5 Nordeste 0 976.4 0 65
2019-07-29 04:00:00 20.6 3 Sudeste 8 Sudeste 0 976.4 -0.2 74
2019-07-29 03:00:00 21.5 0 Calma 5 Este 0 976.3 -0.4 63
2019-07-29 02:00:00 21.7 0 Calma 4 Oeste 0 976.4 -0.3 62
2019-07-29 01:00:00 22.2 0 Calma 5 Noroeste 0 976.6 1 62
2019-07-29 00:00:00 22.9 0 Calma 9 Sur 0 976.7 1.6 60
2019-07-28 23:00:00 23.1 6 Sudoeste 13 Sudoeste 0 976.7 2.1 55
2019-07-28 22:00:00 25.5 3 Este 9 Este 0 975.6 1.5 40
2019-07-28 21:00:00 26.5 5 Sudoeste 16 Sudoeste 0 975.1 0.8 35
2019-07-28 20:00:00 27.3 10 Sudoeste 22 Sudeste 0 974.6 0.2 34
2019-07-28 19:00:00 28.1 9 Sur 25 Sudeste 0 974.1 -0.8 29
2019-07-28 18:00:00 28.5 14 Sudoeste 28 Sudoeste 0 974.3 -0.8 30
2019-07-28 17:00:00 29.2 16 Sudoeste 31 Sudoeste 0 974.4 -0.9 29
2019-07-28 16:00:00 28.6 17 Sudoeste 33 Sudoeste 0 974.9 -0.6 29
2019-07-28 15:00:00 28.5 17 Sudoeste 34 Sudoeste 0 975.1 -0.6 29
2019-07-28 14:00:00 28.3 17 Sudoeste 34 Sudoeste 0 975.3 -0.3 30
2019-07-28 13:00:00 28.5 13 Sur 31 Sudoeste 0 975.5 0 29
2019-07-28 12:00:00 28.5 13 Sur 27 Sudoeste 0 975.7 0.5 27
2019-07-28 11:00:00 30 2 Este 14 Este 0 975.6 0.4 27
2019-07-28 10:00:00 30.3 0 Calma 5 Oeste 0 975.5 0.3 30
2019-07-28 09:00:00 26.4 0 Calma 4 Noroeste 0 975.2 0.5 35
2019-07-28 08:00:00 23.3 0 Calma 5 Oeste 0 975.2 0.9 42
2019-07-28 07:00:00 22.2 0 Calma 8 Oeste 0 975.2 1 47
2019-07-28 06:00:00 22.5 2 Noroeste 16 Oeste 0 974.7 0.3 47
2019-07-28 05:00:00 23.5 12 Noroeste 25 Noroeste 0 974.3 0.2 43
2019-07-28 04:00:00 24.4 13 Oeste 25 Noroeste 0 974.2 -0.3 38
2019-07-28 03:00:00 24.9 12 Oeste 36 Oeste 0 974.4 -0.2 36
2019-07-28 02:00:00 25.5 22 Noroeste 35 Noroeste 0 974.1 0.5 34
2019-07-28 01:00:00 26 13 Oeste 23 Noroeste 0 974.5 1.7 31
2019-07-28 00:00:00 26.8 9 Noroeste 33 Norte 0 974.6 2.7 28
2019-07-27 23:00:00 27.4 19 Noroeste 34 Noroeste 0 973.6 2.2 26
2019-07-26 12:00:00 30.7 9 Sur 17 Sur 0 976.6 -0.1 30
2019-07-26 11:00:00 31.2 0 Calma 8 Sur 0 976.7 -0.3 31
2019-07-26 10:00:00 27.8 0 Calma 5 Sudeste 0 976.6 -0.7 40
2019-07-26 09:00:00 24.4 0 Calma 7 Oeste 0 976.7 -0.5 56
2019-07-26 08:00:00 20.2 0 Calma 6 Este 0 977 -0.4 75
2019-07-26 07:00:00 20.5 2 Oeste 6 Noroeste 0 977.3 -0.6 82
2019-07-26 06:00:00 21.3 3 Noroeste 8 Noroeste 0 977.2 -0.9 82
2019-07-26 05:00:00 21.9 3 Norte 7 Nordeste 0 977.4 -1.5 82
2019-07-26 04:00:00 21.8 3 Sudoeste 5 Sudoeste 0 977.9 -1.4 82
2019-07-26 03:00:00 22.4 2 Oeste 6 Oeste 0 978.1 -1.4 81
2019-07-26 02:00:00 22.9 4 Oeste 9 Sudoeste 0 978.9 -0.2 81
2019-07-26 01:00:00 23.7 4 Sur 7 Sur 0 979.3 0.6 80
2019-07-26 00:00:00 24.1 3 Sudoeste 7 Sudoeste 0 979.5 1.8 78
2019-07-25 23:00:00 24.5 5 Sudoeste 15 Sudoeste 0 979.1 1.6 76
2019-07-25 22:00:00 25.1 9 Sur 13 Sudoeste 0 978.7 1 74
2019-07-25 21:00:00 26.7 6 Sudoeste 19 Sudoeste 0 977.7 -0.1 63
2019-07-25 20:00:00 28.3 7 Sudoeste 18 Sudoeste 0 977.5 -0.6 57
2019-07-25 19:00:00 28.6 12 Sudoeste 24 Sudoeste 0 977.7 -0.6 56
2019-07-25 18:00:00 28.9 15 Sudoeste 30 Sudoeste 0 977.8 -1.1 52
2019-07-25 17:00:00 31 15 Sur 28 Sur 0 978.1 -1 40
2019-07-25 16:00:00 31.5 15 Sur 30 Sur 0 978.3 -1.3 37
2019-07-25 15:00:00 31.4 17 Sudoeste 27 Sudoeste 0 978.9 -0.8 29
2019-07-25 14:00:00 34.2 8 Sudeste 22 Este 0 979.1 -1 20
2019-07-25 13:00:00 32.7 10 Sur 24 Sur 0 979.6 -0.1 22
2019-07-25 12:00:00 32.7 7 Este 19 Sudeste 0 979.7 0.5 22
2019-07-25 11:00:00 31 9 Sudeste 17 Sudeste 0 980.1 0.4 24
2019-07-25 10:00:00 31.7 0 Calma 6 Sudoeste 0 979.7 0.2 25
2019-07-25 09:00:00 27 0 Calma 6 Sudoeste 0 979.2 0.1 31
2019-07-25 08:00:00 23.7 2 Norte 6 Noroeste 0 979.7 0.1 35
2019-07-25 07:00:00 22.3 3 Noroeste 6 Noroeste 0 979.5 0.1 35
2019-07-25 06:00:00 22.1 0 Calma 11 Nordeste 0 979.1 -0.8 39
2019-07-25 05:00:00 23.5 2 Este 8 Noroeste 0 979.6 -0.7 37
2019-07-25 04:00:00 23.7 2 Noroeste 10 Este 0 979.4 -1.1 40
2019-07-25 03:00:00 24 2 Nordeste 6 Nordeste 0 979.9 -0.5 43
2019-07-25 02:00:00 24.6 0 Calma 5 Nordeste 0 980.3 0.1 47
2019-07-25 01:00:00 25.8 2 Este 5 Este 0 980.5 0.9 44
2019-07-25 00:00:00 26.4 0 Calma 5 Sudoeste 0 980.4 1.1 49
2019-07-24 23:00:00 27.1 0 Calma 10 Sudoeste 0 980.2 1.1 47
2019-07-24 22:00:00 27.2 6 Sudoeste 12 Sudoeste 0 979.6 0.6 43
2019-07-24 21:00:00 29.4 6 Sudoeste 19 Sudoeste 0 979.3 0.1 38
2019-07-24 20:00:00 29.7 12 Sudoeste 20 Sudoeste 0 979.1 -0.4 37
2019-07-24 19:00:00 31.2 8 Sur 23 Sudeste 0 979 -0.9 32
2019-07-24 18:00:00 34.2 8 Sudeste 23 Este 0 979.2 -1 17
2019-07-24 17:00:00 34.6 10 Sudeste 23 Este 0 979.5 -1.1 16
2019-07-24 16:00:00 34.8 12 Este 27 Este 0 979.9 -0.8 16
2019-07-24 15:00:00 35.1 8 Este 24 Este 0 980.2 -1.1 15
2019-07-24 14:00:00 35.2 10 Este 26 Sudeste 0 980.6 -0.5 15
2019-07-24 13:00:00 34.4 10 Este 26 Este 0 980.7 0.1 15
2019-07-24 12:00:00 33.5 10 Sudeste 22 Sudeste 0 981.3 0.8 15
2019-07-24 11:00:00 33.1 6 Este 17 Este 0 981.1 0.3 18
2019-07-24 10:00:00 31.2 0 Calma 8 Oeste 0 980.6 -0.2 22
2019-07-24 09:00:00 25.8 3 Noroeste 8 Noroeste 0 980.5 -0.1 31
2019-07-24 08:00:00 23.2 0 Calma 6 Este 0 980.8 -0.1 35
2019-07-24 07:00:00 22.2 0 Calma 5 Nordeste 0 980.8 -0.2 36
2019-07-24 06:00:00 22.4 0 Calma 8 Nordeste 0 980.6 -0.8 35
2019-07-24 05:00:00 22.8 3 Noroeste 6 Oeste 0 980.9 -0.7 37
2019-07-24 04:00:00 23.3 0 Calma 7 Noroeste 0 981 -0.8 37
2019-07-24 03:00:00 23.7 0 Calma 9 Oeste 0 981.4 -0.4 40
2019-07-24 02:00:00 24.9 2 Norte 6 Noroeste 0 981.6 0.2 45
2019-07-24 01:00:00 25.5 0 Calma 7 Oeste 0 981.8 0.9 44
2019-07-24 00:00:00 26 3 Oeste 7 Oeste 0 981.8 1.7 44
2019-07-23 23:00:00 26.7 2 Sudoeste 12 Sudoeste 0 981.4 1.7 44
2019-07-23 22:00:00 27.3 9 Sudoeste 15 Sudoeste 0 980.9 1 41
2019-07-23 21:00:00 28.5 7 Oeste 22 Sudoeste 0 980.1 -0.3 34
2019-07-23 20:00:00 31.3 6 Sur 26 Sudeste 0 979.7 -0.9 24
2019-07-23 19:00:00 35 8 Sudeste 26 Sudeste 0 979.9 -1 14
2019-07-23 18:00:00 35.4 11 Sudeste 27 Sudeste 0 980.4 -1 13
2019-07-23 17:00:00 36.1 13 Sudeste 27 Sudeste 0 980.6 -1.3 13
2019-07-23 16:00:00 35.9 12 Sudeste 38 Este 0 980.9 -1.3 13
2019-07-23 15:00:00 35.9 10 Sudeste 26 Sudeste 0 981.4 -1 14
2019-07-23 14:00:00 35.4 8 Este 27 Este 0 981.9 -0.4 14
2019-07-23 13:00:00 33.1 6 Este 27 Este 0 982.2 -0.1 15
2019-07-23 12:00:00 33.6 9 Sudeste 21 Este 0 982.4 0.1 15
2019-07-23 11:00:00 32.1 6 Este 22 Este 0 982.3 -0.2 18
2019-07-23 10:00:00 29.6 0 Calma 8 Este 0 982.3 -0.5 23
2019-07-23 09:00:00 27.1 2 Nordeste 7 Norte 0 982.3 -0.3 31
2019-07-23 08:00:00 23.8 0 Calma 10 Noroeste 0 982.5 0.1 37
2019-07-23 07:00:00 22.5 5 Noroeste 10 Nordeste 0 982.8 -0.1 43
2019-07-23 06:00:00 23.9 2 Este 12 Oeste 0 982.6 -1.3 41
2019-07-23 05:00:00 24 4 Este 8 Nordeste 0 982.4 -1.8 43
2019-07-23 04:00:00 23 3 Oeste 8 Sudoeste 0 982.9 -1.3 43
2019-07-23 03:00:00 23.6 0 Calma 8 Este 0 983.9 -0.5 43
2019-07-23 02:00:00 25.7 0 Calma 10 Este 0 984.2 0.1 42
2019-07-23 01:00:00 26.2 0 Calma 9 Este 0 984.2 0.7 41
2019-07-23 00:00:00 26.9 0 Calma 17 Este 0 984.4 1 40
2019-07-22 23:00:00 27.3 5 Este 19 Sudeste 0 984.1 1 40
2019-07-22 22:00:00 28 5 Nordeste 12 Este 0 983.5 0.9 46
2019-07-22 21:00:00 27.9 5 Sudoeste 19 Sudoeste 0 983.4 0.4 49
2019-07-22 20:00:00 28.6 10 Sudoeste 23 Sudoeste 0 983.1 -0.1 50
2019-07-22 19:00:00 29.8 12 Sudoeste 22 Sudoeste 0 982.6 -1.1 45
2019-07-22 18:00:00 30.2 12 Sur 26 Sudoeste 0 983 -1.1 42
2019-07-22 17:00:00 34 4 Sudeste 26 Este 0 983.2 -1.3 31
2019-07-22 16:00:00 31.4 10 Este 23 Este 0 983.7 -1.2 34
2019-07-22 15:00:00 33.4 7 Este 24 Este 0 984.1 -1.3 27
2019-07-22 14:00:00 32.2 8 Sudeste 30 Nordeste 0 984.5 -0.7 26
2019-07-22 13:00:00 32.6 8 Este 31 Este 0 984.9 -0.8 24
2019-07-22 12:00:00 30.9 9 Este 24 Nordeste 0 985.4 0.4 26
2019-07-22 11:00:00 29.8 8 Este 22 Este 0 985.2 0.4 27
2019-07-22 10:00:00 29 6 Este 15 Este 0 985.7 0.9 28
2019-07-22 09:00:00 26.4 0 Calma 4 Noroeste 0 985 0.7 40
2019-07-22 08:00:00 23.4 0 Calma 4 Nordeste 0 984.8 0.3 50
2019-07-22 07:00:00 22.3 0 Calma 5 Noroeste 0 984.8 0.1 52
2019-07-22 06:00:00 22.5 2 Noroeste 6 Noroeste 0 984.3 -0.9 53
2019-07-22 05:00:00 22.7 2 Noroeste 8 Sudeste 0 984.5 -0.7 57
2019-07-22 04:00:00 24.1 4 Este 13 Nordeste 0 984.7 -0.3 51
2019-07-22 03:00:00 24.6 3 Este 12 Este 0 985.2 -0.2 46
2019-07-22 02:00:00 25.1 2 Noroeste 6 Oeste 0 985.2 -0.5 46
2019-07-22 01:00:00 24.9 2 Noroeste 12 Noroeste 0 985 -0.1 56
2019-07-22 00:00:00 23.9 8 Noroeste 15 Norte 0 985.4 1.7 80
2019-07-21 23:00:00 24.4 6 Sudoeste 17 Sur 0 985.7 3.2 77
2019-07-21 22:00:00 25.4 7 Sudoeste 12 Este 0 985.1 3.4 70
2019-07-21 21:00:00 26.7 6 Sudoeste 13 Sur 0 983.7 1.4 64
2019-07-21 20:00:00 29.1 6 Sur 19 Sur 0 982.5 0.1 55
2019-07-21 19:00:00 29 9 Sudoeste 23 Sur 0 981.7 -1.1 54
2019-07-21 18:00:00 29.9 5 Sur 22 Este 0 982.3 -0.5 48
2019-07-21 17:00:00 29.3 7 Sur 23 Sudoeste 0 982.4 -0.5 49
2019-07-21 16:00:00 32.2 6 Sur 22 Este 0 982.8 -0.5 41
2019-07-21 15:00:00 33.7 6 Sudeste 23 Sudeste 0 982.8 -0.4 34
2019-07-21 14:00:00 32.4 7 Sudeste 27 Sudeste 0 982.9 0.2 33
2019-07-21 13:00:00 31.8 6 Este 27 Este 0 983.3 0.8 32
2019-07-21 12:00:00 31 8 Este 27 Nordeste 0 983.2 1.2 26
2019-07-21 11:00:00 29.4 13 Este 33 Este 0 982.7 0.3 27
2019-07-21 10:00:00 29.6 8 Este 21 Nordeste 0 982.5 0.4 29
2019-07-21 09:00:00 26 2 Noroeste 13 Este 0 982 0.7 40
2019-07-21 08:00:00 23.5 3 Este 12 Este 0 982.4 0.8 46
2019-07-21 07:00:00 22.2 2 Sur 8 Sur 0 982.1 0.4 53
2019-07-21 06:00:00 23.5 0 Calma 10 Este 0 981.3 -0.1 50
2019-07-21 05:00:00 23.5 5 Nordeste 10 Nordeste 0 981.6 -0.1 52
2019-07-21 04:00:00 23.4 0 Calma 9 Este 0 981.7 -0.2 53
2019-07-21 03:00:00 25.2 3 Este 17 Este 0 981.4 -0.2 47
2019-07-21 02:00:00 24.7 8 Este 21 Sudeste 0 981.7 0.4 54
2019-07-21 01:00:00 25.3 8 Este 19 Nordeste 0 981.9 1 50
2019-07-21 00:00:00 26.1 8 Este 20 Este 0 981.6 1.4 46
2019-07-20 23:00:00 27.1 6 Este 23 Nordeste 0 981.3 2.3 43
2019-07-20 22:00:00 25.7 3 Oeste 17 Sudoeste 0 980.9 2.8 72
2019-07-20 21:00:00 26.5 10 Sudoeste 21 Sudoeste 0 980.2 2 67
2019-07-20 20:00:00 28.6 8 Sudoeste 20 Sur 0 979 0.5 56
2019-07-20 19:00:00 30.4 8 Sur 23 Sudoeste 0 978.1 -0.5 50
2019-07-20 18:00:00 29.8 14 Sudoeste 28 Sudoeste 0 978.2 -0.1 53
2019-07-20 17:00:00 29.5 15 Sur 31 Sudoeste 0 978.5 -0.3 50
2019-07-20 16:00:00 29.5 19 Sur 29 Sudoeste 0 978.6 0.1 47
2019-07-20 15:00:00 29.8 18 Sur 32 Sur 0 978.3 -0.1 42
2019-07-20 14:00:00 30.7 22 Sur 36 Sur 0 978.8 0.5 33
2019-07-20 13:00:00 33.3 8 Sudeste 32 Este 0 978.5 0.3 24
2019-07-20 12:00:00 32.1 12 Este 26 Sudeste 0 978.4 0 24
2019-07-20 11:00:00 31.1 13 Este 24 Este 0 978.3 0.1 24
2019-07-20 10:00:00 31.1 0 Calma 6 Sudoeste 0 978.2 -0.2 26
2019-07-20 09:00:00 26 3 Sur 8 Sur 0 978.4 -0.1 33
2019-07-20 08:00:00 23.7 0 Calma 6 Norte 0 978.2 0.1 36
2019-07-20 07:00:00 22.8 0 Calma 4 Sudeste 0 978.4 -0.2 37
2019-07-20 06:00:00 23.4 3 Sur 7 Sur 0 978.5 -0.4 35
2019-07-20 05:00:00 23.6 4 Noroeste 8 Noroeste 0 978.1 -1.4 36
2019-07-20 04:00:00 24.1 2 Norte 9 Noroeste 0 978.6 -1.5 37
2019-07-20 03:00:00 24.9 2 Nordeste 13 Este 0 978.9 -0.8 34
2019-07-20 02:00:00 25.5 4 Este 12 Sudeste 0 979.5 0.6 35
2019-07-20 01:00:00 25.1 4 Sudeste 15 Este 0 980.1 2.2 43
2019-07-20 00:00:00 26 5 Este 17 Sudeste 0 979.7 2.3 39
2019-07-19 23:00:00 27 5 Este 21 Nordeste 0 978.9 1.6 34
2019-07-19 22:00:00 28.3 7 Este 25 Este 0 977.9 0.5 31
2019-07-19 21:00:00 28.9 3 Sudeste 12 Nordeste 0 977.4 -0.6 37
2019-07-19 20:00:00 29.9 9 Sudoeste 19 Sudeste 0 977.3 -1.1 34
2019-07-19 19:00:00 31.8 9 Sudeste 24 Este 0 977.4 -1.3 25
2019-07-19 18:00:00 32 7 Sur 24 Sudoeste 0 978 -1.3 31
2019-07-19 17:00:00 32.9 6 Sur 24 Este 0 978.4 -1.5 24
2019-07-19 16:00:00 33.2 11 Este 26 Este 0 978.7 -1.5 19
2019-07-19 15:00:00 32.6 10 Este 22 Este 0 979.3 -1.2 19
2019-07-19 14:00:00 32.3 9 Sudeste 31 Sudoeste 0 979.9 -0.7 18
2019-07-19 13:00:00 32.5 6 Este 26 Este 0 980.2 -0.3 17
2019-07-19 12:00:00 31.7 9 Sudeste 23 Sudeste 0 980.5 0.1 15
2019-07-19 11:00:00 29.6 8 Este 22 Este 0 980.6 0 21
2019-07-19 10:00:00 29 0 Calma 6 Este 0 980.5 -0.3 28
2019-07-19 09:00:00 25.6 0 Calma 9 Norte 0 980.4 0.1 36
2019-07-19 08:00:00 21.2 3 Norte 9 Norte 0 980.6 0.4 46
2019-07-19 07:00:00 19.4 0 Calma 5 Sudoeste 0 980.8 0.4 55
2019-07-19 06:00:00 19.5 0 Calma 5 Sudoeste 0 980.3 -0.4 56
2019-07-19 05:00:00 19.6 0 Calma 4 Sur 0 980.2 -0.6 51
2019-07-19 04:00:00 20.3 3 Noroeste 5 Oeste 0 980.4 -0.5 48
2019-07-19 03:00:00 20.2 0 Calma 6 Nordeste 0 980.7 -0.1 59
2019-07-19 02:00:00 21.7 2 Este 8 Este 0 980.8 0.3 65
2019-07-19 01:00:00 22 0 Calma 4 Sudoeste 0 980.9 0.9 64
2019-07-19 00:00:00 22.3 4 Sur 8 Sur 0 980.8 1.1 74